createdAt,value
2022-09-05T00:00:21.117Z,8.75
2022-09-05T00:03:20.973Z,9.10
2022-09-05T00:06:14.375Z,8.98
2022-09-05T00:09:17.834Z,8.82
2022-09-05T00:12:00.426Z,10.43
2022-09-05T00:15:16.729Z,9.43
2022-09-05T00:21:42.879Z,9.20
2022-09-05T00:24:35.630Z,8.18
2022-09-05T00:25:21.336Z,9.52
2022-09-05T00:28:25.494Z,9.75
2022-09-05T00:31:55.520Z,8.52
2022-09-05T00:35:04.499Z,8.93
2022-09-05T00:37:46.273Z,8.25
2022-09-05T00:40:37.842Z,8.60
2022-09-05T00:43:13.459Z,8.23
2022-09-05T00:45:52.183Z,7.88
2022-09-05T00:48:45.794Z,8.55
2022-09-05T00:51:46.565Z,9.07
2022-09-05T00:54:55.295Z,8.00
2022-09-05T00:57:57.654Z,8.07
2022-09-05T01:00:57.288Z,8.50
2022-09-05T01:04:05.808Z,8.05
2022-09-05T01:07:05.755Z,7.88
2022-09-05T01:10:05.912Z,7.90
2022-09-05T01:13:03.212Z,7.57
2022-09-05T01:16:11.995Z,7.43
2022-09-05T01:19:15.813Z,7.85
2022-09-05T01:22:24.857Z,7.47
2022-09-05T01:25:33.522Z,7.85
2022-09-05T01:29:13.870Z,7.82
2022-09-05T01:31:57.834Z,7.25
2022-09-05T01:35:00.295Z,7.78
2022-09-05T01:37:46.010Z,7.68
2022-09-05T01:40:47.175Z,7.72
2022-09-05T01:43:54.481Z,7.88
2022-09-05T01:46:54.703Z,7.32
2022-09-05T01:49:55.658Z,7.57
2022-09-05T01:53:09.752Z,8.55
2022-09-05T01:56:06.773Z,7.70
2022-09-05T01:59:18.853Z,7.45
2022-09-05T02:02:21.137Z,6.72
2022-09-05T02:05:49.148Z,6.68
2022-09-05T02:08:52.908Z,6.80
2022-09-05T02:11:46.979Z,6.78
2022-09-05T02:14:50.387Z,7.43
2022-09-05T02:17:57.450Z,7.32
2022-09-05T02:20:49.481Z,7.28
2022-09-05T02:23:50.132Z,6.95
2022-09-05T02:26:28.376Z,7.45
2022-09-05T02:29:37.665Z,6.68
2022-09-05T02:32:31.497Z,7.15
2022-09-05T02:35:26.950Z,7.30
2022-09-05T02:40:13.994Z,6.90
2022-09-05T02:45:10.438Z,6.78
2022-09-05T02:45:12.355Z,6.13
2022-09-05T02:47:25.973Z,5.88
2022-09-05T02:54:27.694Z,5.90
2022-09-05T02:57:35.419Z,5.90
2022-09-05T02:57:37.798Z,5.80
2022-09-05T02:59:50.803Z,5.75
2022-09-05T03:02:36.946Z,5.75
2022-09-05T03:05:33.757Z,5.63
2022-09-05T03:08:39.193Z,6.53
2022-09-05T03:11:48.096Z,5.72
2022-09-05T03:14:52.015Z,5.88
2022-09-05T03:18:20.312Z,6.43
2022-09-05T03:21:30.957Z,6.00
2022-09-05T03:24:39.752Z,5.70
2022-09-05T03:27:39.681Z,6.53
2022-09-05T03:30:27.852Z,6.50
2022-09-05T03:33:30.905Z,6.32
2022-09-05T03:36:39.759Z,6.25
2022-09-05T03:39:48.521Z,5.70
2022-09-05T03:42:46.522Z,6.53
2022-09-05T03:45:43.472Z,7.05
2022-09-05T03:48:41.647Z,5.80
2022-09-05T03:57:07.290Z,6.07
2022-09-05T03:57:24.720Z,6.18
2022-09-05T03:58:56.038Z,6.15
2022-09-05T04:08:05.832Z,5.97
2022-09-05T04:08:11.496Z,6.47
2022-09-05T04:08:25.311Z,6.10
2022-09-05T04:13:42.607Z,6.20
2022-09-05T04:16:44.367Z,6.10
2022-09-05T04:19:31.547Z,6.47
2022-09-05T04:22:30.497Z,6.90
2022-09-05T04:25:22.076Z,5.50
2022-09-05T04:28:24.132Z,5.57
2022-09-05T04:31:32.864Z,5.40
2022-09-05T04:34:38.217Z,4.85
2022-09-05T04:37:10.418Z,4.65
2022-09-05T04:39:41.893Z,4.85
2022-09-05T04:42:25.236Z,4.88
2022-09-05T04:45:05.137Z,4.75
2022-09-05T04:47:41.695Z,4.70
2022-09-05T04:50:23.530Z,4.32
2022-09-05T04:53:30.755Z,4.55
2022-09-05T04:56:02.490Z,4.77
2022-09-05T05:01:01.740Z,4.70
2022-09-05T05:06:03.531Z,4.80
2022-09-05T05:06:16.462Z,4.43
2022-09-05T05:07:52.255Z,4.07
2022-09-05T05:14:09.282Z,4.45
2022-09-05T05:17:59.705Z,4.57
2022-09-05T05:18:15.972Z,4.30
2022-09-05T05:19:43.492Z,4.72
2022-09-05T05:22:19.937Z,4.47
2022-09-05T05:24:53.492Z,4.72
2022-09-05T05:27:34.700Z,5.05
2022-09-05T05:30:13.514Z,4.50
2022-09-05T05:32:46.958Z,4.38
2022-09-05T05:35:20.782Z,5.35
2022-09-05T05:38:10.230Z,5.07
2022-09-05T05:40:50.763Z,3.92
2022-09-05T05:43:45.508Z,4.25
2022-09-05T05:46:26.933Z,4.43
2022-09-05T05:49:09.531Z,4.45
2022-09-05T05:52:07.046Z,4.60
2022-09-05T05:54:51.776Z,4.88
2022-09-05T05:58:18.546Z,4.70
2022-09-05T06:01:31.630Z,5.03
2022-09-05T06:04:44.826Z,4.93
2022-09-05T06:08:36.530Z,4.38
2022-09-05T06:14:55.518Z,4.50
2022-09-05T06:15:09.111Z,5.00
2022-09-05T06:18:16.183Z,4.20
2022-09-05T06:22:08.868Z,4.57
2022-09-05T06:24:58.082Z,4.47
2022-09-05T06:28:19.072Z,4.47
2022-09-05T06:31:30.834Z,3.78
2022-09-05T06:34:40.215Z,3.55
2022-09-05T06:37:48.985Z,3.78
2022-09-05T06:40:36.588Z,4.70
2022-09-05T06:43:27.879Z,4.95
2022-09-05T06:46:52.866Z,5.15
2022-09-05T06:49:46.199Z,4.70
2022-09-05T06:52:52.377Z,4.55
2022-09-05T06:56:01.062Z,4.80
2022-09-05T06:59:07.748Z,5.13
2022-09-05T07:02:01.055Z,4.70
2022-09-05T07:05:24.689Z,4.45
2022-09-05T07:08:20.430Z,4.97
2022-09-05T07:11:16.551Z,5.32
2022-09-05T07:14:10.667Z,4.93
2022-09-05T07:17:07.487Z,5.10
2022-09-05T07:20:00.454Z,5.43
2022-09-05T07:22:56.314Z,5.13
2022-09-05T07:25:50.925Z,5.78
2022-09-05T07:28:29.104Z,5.30
2022-09-05T07:31:08.375Z,5.03
2022-09-05T07:33:42.566Z,5.38
2022-09-05T07:36:18.845Z,4.95
2022-09-05T07:39:02.274Z,5.03
2022-09-05T07:41:41.345Z,6.15
2022-09-05T07:44:29.367Z,5.90
2022-09-05T07:47:11.143Z,5.25
2022-09-05T07:49:57.978Z,5.65
2022-09-05T07:56:53.093Z,5.57
2022-09-05T07:56:56.943Z,5.13
2022-09-05T07:58:26.365Z,5.30
2022-09-05T08:00:59.942Z,5.10
2022-09-05T08:03:33.660Z,5.40
2022-09-05T08:06:10.755Z,6.22
2022-09-05T08:10:00.907Z,5.55
2022-09-05T08:12:09.416Z,5.72
2022-09-05T08:14:47.645Z,4.65
2022-09-05T08:17:30.196Z,4.38
2022-09-05T08:20:28.839Z,4.35
2022-09-05T08:23:31.411Z,4.57
2022-09-05T08:26:24.875Z,4.82
2022-09-05T08:29:05.088Z,4.90
2022-09-05T08:31:53.171Z,6.07
2022-09-05T08:34:44.709Z,5.07
2022-09-05T08:37:21.882Z,5.63
2022-09-05T08:39:57.521Z,5.32
2022-09-05T08:46:35.283Z,5.55
2022-09-05T08:46:42.802Z,4.70
2022-09-05T08:49:48.897Z,4.07
2022-09-05T08:52:57.651Z,4.10
2022-09-05T08:56:06.335Z,2.75
2022-09-05T08:59:31.826Z,1.80
2022-09-05T09:02:47.590Z,1.98
2022-09-05T09:06:12.870Z,2.30
2022-09-05T09:09:20.047Z,1.60
2022-09-05T09:11:59.356Z,1.38
2022-09-05T09:15:06.040Z,1.75
2022-09-05T09:17:51.906Z,1.73
2022-09-05T09:21:00.558Z,1.45
2022-09-05T09:23:52.195Z,0.80
2022-09-05T09:26:31.974Z,1.67
2022-09-05T09:29:21.907Z,1.67
2022-09-05T09:32:16.660Z,2.08
2022-09-05T09:35:11.174Z,1.80
2022-09-05T09:38:20.005Z,1.60
2022-09-05T09:41:28.827Z,2.22
2022-09-05T09:44:28.573Z,1.42
2022-09-05T09:46:59.077Z,1.30
2022-09-05T09:50:04.308Z,1.20
2022-09-05T09:53:03.674Z,1.17
2022-09-05T09:56:11.646Z,1.23
2022-09-05T09:59:20.456Z,1.73
2022-09-05T10:04:31.224Z,1.23
2022-09-05T10:10:40.208Z,1.30
2022-09-05T10:10:57.757Z,1.02
2022-09-05T10:12:35.164Z,1.20
2022-09-05T10:15:36.465Z,1.50
2022-09-05T10:18:33.265Z,1.90
2022-09-05T10:21:41.904Z,1.83
2022-09-05T10:24:43.190Z,1.70
2022-09-05T10:27:44.572Z,1.60
2022-09-05T10:33:03.796Z,1.75
2022-09-05T10:35:23.148Z,2.35
2022-09-05T10:37:07.023Z,1.52
2022-09-05T10:39:40.953Z,1.20
2022-09-05T10:42:29.121Z,1.65
2022-09-05T10:45:00.899Z,1.20
2022-09-05T10:47:50.185Z,1.20
2022-09-05T10:50:32.047Z,1.60
2022-09-05T10:53:39.225Z,1.50
2022-09-05T11:02:09.483Z,2.28
2022-09-05T11:02:34.911Z,2.10
2022-09-05T11:05:28.404Z,2.50
2022-09-05T11:08:29.677Z,2.28
2022-09-05T11:11:28.132Z,3.03
2022-09-05T11:14:12.154Z,2.65
2022-09-05T11:17:16.115Z,2.67
2022-09-05T11:20:23.738Z,2.58
2022-09-05T11:23:11.620Z,2.58
2022-09-05T11:25:42.841Z,2.67
2022-09-05T11:28:24.264Z,2.45
2022-09-05T11:30:58.791Z,3.30
2022-09-05T11:39:48.129Z,2.78
2022-09-05T11:40:04.815Z,2.30
2022-09-05T11:40:43.620Z,2.40
2022-09-05T11:43:50.251Z,2.97
2022-09-05T11:46:47.605Z,2.15
2022-09-05T11:50:00.805Z,2.20
2022-09-05T11:53:01.660Z,2.30
2022-09-05T11:55:55.147Z,2.08
2022-09-05T11:58:50.814Z,3.08
2022-09-05T12:02:08.384Z,2.05
2022-09-05T12:05:49.849Z,2.25
2022-09-05T12:08:38.446Z,2.60
2022-09-05T12:11:47.264Z,2.53
2022-09-05T12:14:49.300Z,1.98
2022-09-05T12:20:44.475Z,5.28
2022-09-05T12:23:53.579Z,3.60
2022-09-05T12:27:41.953Z,2.60
2022-09-05T12:30:00.899Z,2.83
2022-09-05T12:35:18.298Z,2.67
2022-09-05T12:36:10.636Z,2.50
2022-09-05T12:41:34.719Z,2.25
2022-09-05T12:42:20.641Z,1.90
2022-09-05T12:45:37.467Z,2.07
2022-09-05T12:48:39.465Z,2.45
2022-09-05T12:51:45.447Z,2.15
2022-09-05T12:54:33.241Z,2.25
2022-09-05T13:02:13.325Z,3.25
2022-09-05T13:03:11.723Z,2.70
2022-09-05T13:03:26.985Z,3.20
2022-09-05T13:06:19.506Z,4.10
2022-09-05T13:09:04.542Z,3.13
2022-09-05T13:14:49.162Z,3.67
2022-09-05T13:15:22.697Z,3.20
2022-09-05T13:18:17.177Z,2.95
2022-09-05T13:21:06.839Z,2.38
2022-09-05T13:23:55.757Z,2.83
2022-09-05T13:26:55.486Z,3.45
2022-09-05T13:29:44.227Z,2.83
2022-09-05T13:37:58.606Z,3.00
2022-09-05T13:38:00.108Z,2.85
2022-09-05T13:38:58.069Z,2.90
2022-09-05T13:41:32.553Z,2.97
2022-09-05T13:44:27.646Z,2.67
2022-09-05T13:47:14.788Z,3.15
2022-09-05T13:50:36.541Z,4.55
2022-09-05T13:53:38.947Z,4.00
2022-09-05T13:56:29.913Z,3.20
2022-09-05T13:59:10.423Z,3.85
2022-09-05T14:02:25.906Z,3.55
2022-09-05T14:05:34.404Z,2.78
2022-09-05T14:08:35.234Z,3.85
2022-09-05T14:11:44.745Z,3.75
2022-09-05T14:17:53.707Z,2.92
2022-09-05T14:20:50.511Z,3.67
2022-09-05T14:23:24.656Z,3.90
2022-09-05T14:26:03.138Z,3.28
2022-09-05T14:28:42.118Z,3.20
2022-09-05T14:37:34.310Z,3.13
2022-09-05T14:38:00.660Z,3.17
2022-09-05T14:38:09.258Z,3.70
2022-09-05T14:41:23.327Z,3.55
2022-09-05T14:44:18.995Z,3.45
2022-09-05T14:47:32.517Z,3.58
2022-09-05T14:50:32.145Z,3.45
2022-09-05T14:57:32.187Z,2.97
2022-09-05T15:02:42.472Z,3.90
2022-09-05T15:03:00.880Z,3.40
2022-09-05T15:05:47.806Z,3.10
2022-09-05T15:11:47.286Z,3.30
2022-09-05T15:12:19.618Z,3.13
2022-09-05T15:14:15.677Z,3.22
2022-09-05T15:17:02.777Z,3.17
2022-09-05T15:20:05.262Z,3.65
2022-09-05T15:22:43.503Z,3.78
2022-09-05T15:25:22.966Z,3.30
2022-09-05T15:27:53.576Z,4.10
2022-09-05T15:30:34.978Z,3.70
2022-09-05T15:33:26.488Z,3.70
2022-09-05T15:35:58.330Z,3.70
2022-09-05T15:38:54.429Z,3.95
2022-09-05T15:41:29.894Z,4.50
2022-09-05T15:44:09.705Z,3.75
2022-09-05T15:47:05.465Z,4.32
2022-09-05T15:49:59.899Z,4.40
2022-09-05T15:52:53.540Z,4.05
2022-09-05T15:55:29.001Z,4.28
2022-09-05T15:58:03.585Z,4.13
2022-09-05T16:00:57.337Z,4.22
2022-09-05T16:08:15.340Z,3.92
2022-09-05T16:10:28.966Z,3.55
2022-09-05T16:10:44.810Z,3.72
2022-09-05T16:17:41.853Z,2.67
2022-09-05T16:23:12.194Z,2.53
2022-09-05T16:23:27.401Z,2.65
2022-09-05T16:24:05.682Z,2.60
2022-09-05T16:26:49.262Z,8.82
2022-09-05T16:29:32.563Z,3.25
2022-09-05T16:32:17.187Z,4.05
2022-09-05T16:34:57.095Z,4.25
2022-09-05T16:37:52.978Z,5.07
2022-09-05T16:40:32.716Z,4.38
2022-09-05T16:43:31.399Z,3.95
2022-09-05T16:46:26.222Z,3.00
2022-09-05T16:49:41.651Z,2.90
2022-09-05T16:52:17.245Z,3.75
2022-09-05T16:55:29.368Z,3.75
2022-09-05T16:58:17.799Z,4.13
2022-09-05T17:01:22.059Z,3.25
2022-09-05T17:04:20.644Z,3.85
2022-09-05T17:07:15.129Z,2.90
2022-09-05T17:09:46.436Z,4.22
2022-09-05T17:12:29.758Z,3.08
2022-09-05T17:15:09.786Z,3.38
2022-09-05T17:18:19.908Z,3.08
2022-09-05T17:20:59.017Z,3.10
2022-09-05T17:29:16.405Z,3.13
2022-09-05T17:29:28.936Z,3.22
2022-09-05T17:32:52.365Z,3.33
2022-09-05T17:35:43.756Z,3.58
2022-09-05T17:38:52.443Z,4.25
2022-09-05T17:42:01.461Z,3.70
2022-09-05T17:45:10.462Z,3.20
2022-09-05T17:47:55.462Z,3.75
2022-09-05T17:50:52.745Z,3.42
2022-09-05T17:53:27.492Z,4.05
2022-09-05T17:56:13.929Z,3.97
2022-09-05T17:59:05.416Z,4.22
2022-09-05T18:01:37.725Z,4.88
2022-09-05T18:04:17.579Z,4.25
2022-09-05T18:06:59.185Z,4.57
2022-09-05T18:10:12.102Z,4.50
2022-09-05T18:13:13.713Z,3.95
2022-09-05T18:16:12.454Z,3.90
2022-09-05T18:19:32.574Z,3.60
2022-09-05T18:21:51.454Z,4.32
2022-09-05T18:25:13.941Z,4.55
2022-09-05T18:28:13.220Z,4.70
2022-09-05T18:30:43.428Z,4.47
2022-09-05T18:33:55.029Z,4.68
2022-09-05T18:36:36.532Z,5.03
2022-09-05T18:39:45.713Z,4.50
2022-09-05T18:42:33.325Z,4.68
2022-09-05T18:45:18.504Z,5.22
2022-09-05T18:48:01.719Z,4.85
2022-09-05T18:50:41.105Z,4.80
2022-09-05T18:53:14.342Z,4.38
2022-09-05T18:56:20.147Z,4.32
2022-09-05T18:59:29.610Z,4.68
2022-09-05T19:02:26.875Z,4.38
2022-09-05T19:05:18.972Z,4.20
2022-09-05T19:08:02.660Z,3.60
2022-09-05T19:10:37.850Z,3.78
2022-09-05T19:13:19.082Z,3.55
2022-09-05T19:16:21.217Z,3.63
2022-09-05T19:19:29.849Z,3.45
2022-09-05T19:23:06.715Z,3.47
2022-09-05T19:24:54.572Z,3.70
2022-09-05T19:27:34.235Z,3.20
2022-09-05T19:36:53.754Z,3.92
2022-09-05T19:37:07.575Z,2.85
2022-09-05T19:37:13.410Z,3.42
2022-09-05T19:43:01.239Z,3.88
2022-09-05T19:47:35.661Z,4.18
2022-09-05T19:47:36.676Z,3.80
2022-09-05T19:48:07.655Z,4.28
2022-09-05T19:50:37.765Z,4.10
2022-09-05T19:53:12.275Z,3.97
2022-09-05T19:55:42.142Z,3.55
2022-09-05T19:58:21.350Z,3.67
2022-09-05T20:01:09.873Z,4.00
2022-09-05T20:03:44.893Z,3.42
2022-09-05T20:06:30.836Z,3.45
2022-09-05T20:09:19.146Z,4.03
2022-09-05T20:14:38.352Z,3.70
2022-09-05T20:17:30.373Z,3.22
2022-09-05T20:20:17.753Z,3.78
2022-09-05T20:22:50.992Z,3.35
2022-09-05T20:25:41.555Z,3.13
2022-09-05T20:28:18.696Z,2.97
2022-09-05T20:30:53.878Z,3.40
2022-09-05T20:33:44.895Z,3.78
2022-09-05T20:43:09.785Z,3.35
2022-09-05T20:43:18.015Z,3.95
2022-09-05T20:43:21.749Z,3.40
2022-09-05T20:44:53.835Z,3.70
2022-09-05T20:54:08.737Z,3.45
2022-09-05T20:54:27.234Z,3.13
2022-09-05T20:54:28.445Z,3.42
2022-09-05T20:56:32.534Z,3.67
2022-09-05T20:59:02.528Z,3.20
2022-09-05T21:01:34.170Z,3.40
2022-09-05T21:04:06.062Z,2.97
2022-09-05T21:06:37.896Z,3.58
2022-09-05T21:09:25.260Z,3.90
2022-09-05T21:14:29.414Z,3.55
2022-09-05T21:17:11.995Z,3.40
2022-09-05T21:19:47.987Z,3.83
2022-09-05T21:22:43.364Z,3.17
2022-09-05T21:25:41.368Z,3.75
2022-09-05T21:28:36.579Z,3.63
2022-09-05T21:31:15.857Z,4.13
2022-09-05T21:33:46.860Z,3.25
2022-09-05T21:36:17.727Z,3.38
2022-09-05T21:38:47.545Z,3.17
2022-09-05T21:41:18.727Z,3.63
2022-09-05T21:47:37.837Z,3.20
2022-09-05T21:47:49.748Z,2.95
2022-09-05T21:49:35.555Z,2.97
2022-09-05T21:52:09.843Z,3.42
2022-09-05T21:59:19.388Z,3.03
2022-09-05T21:59:30.400Z,3.88
2022-09-05T22:00:24.898Z,3.30
2022-09-05T22:02:55.007Z,3.72
2022-09-05T22:05:26.843Z,3.05
2022-09-05T22:07:57.354Z,3.50
2022-09-05T22:10:35.441Z,3.25
2022-09-05T22:13:17.424Z,3.50
2022-09-05T22:15:50.227Z,3.75
2022-09-05T22:18:19.873Z,3.92
2022-09-05T22:21:33.405Z,3.40
2022-09-05T22:23:46.083Z,3.58
2022-09-05T22:26:17.829Z,4.55
2022-09-05T22:28:51.138Z,3.10
2022-09-05T22:31:22.065Z,3.83
2022-09-05T22:33:52.106Z,4.07
2022-09-05T22:36:21.963Z,3.72
2022-09-05T22:38:51.818Z,4.72
2022-09-05T22:41:30.213Z,5.43
2022-09-05T22:44:00.823Z,5.13
2022-09-05T22:46:31.120Z,6.07
2022-09-05T22:49:01.069Z,6.03
2022-09-05T22:51:30.791Z,5.78
2022-09-05T22:54:00.670Z,5.53
2022-09-05T22:56:36.883Z,5.13
2022-09-05T22:59:07.464Z,4.68
2022-09-05T23:01:37.145Z,4.65
2022-09-05T23:04:06.913Z,4.20
2022-09-05T23:06:36.776Z,4.40
2022-09-05T23:09:06.512Z,5.18
2022-09-05T23:11:36.095Z,4.15
2022-09-05T23:14:05.737Z,4.82
2022-09-05T23:16:35.347Z,5.28
2022-09-05T23:19:04.984Z,4.13
2022-09-05T23:21:36.098Z,4.70
2022-09-05T23:24:06.231Z,4.35
2022-09-05T23:26:36.217Z,4.63
2022-09-05T23:29:06.362Z,4.72
2022-09-05T23:31:37.435Z,4.68
2022-09-05T23:34:07.575Z,4.95
2022-09-05T23:36:37.882Z,4.88
2022-09-05T23:39:07.838Z,4.35
2022-09-05T23:41:37.706Z,4.82
2022-09-05T23:44:07.686Z,5.13
2022-09-05T23:46:39.579Z,5.18
2022-09-05T23:49:09.798Z,5.00
2022-09-05T23:51:39.756Z,4.70
2022-09-05T23:54:09.785Z,5.50
2022-09-05T23:56:39.713Z,4.93
2022-09-05T23:59:09.900Z,4.80
